Talkeetna, AK (99676)

12:50 PM AKST on December 06, 2016 (GMT -0900)
Talkeetna | | Change Station

Elev 358 ft 62.32 °N, 150.09 °W | Updated 57 minutes ago

Partly Cloudy
Partly Cloudy
12 °F
Feels Like 0 °F
N
9
Wind Variable Wind from North

Today
High -- | Low -- °F
--% Chance of Precip.
Yesterday
High -- | Low -- °F
Precip. -- in
Pressure 30.24 in
Visibility 10.0 miles
Clouds Few 8500 ft
Windchill 0 °F
Dew Point -3 °F
Humidity 51%
Rainfall 0.00 in
Snow Depth Not available.
10:09 AM 3:33 PM
Waxing Crescent, 45% visible
METAR PATK 062053Z 36008KT 10SM FEW085 M11/M19 A3020 RMK AO2 SLP238 T11111194 58003 $
Pressure 30.24 in
Visibility 10.0 miles
Clouds Few 8500 ft
Windchill 0 °F
Dew Point -3 °F
Humidity 51%
Rainfall 0.00 in
Snow Depth Not available.
10:09 AM 3:33 PM
Waxing Crescent, 45% visible
METAR PATK 062053Z 36008KT 10SM FEW085 M11/M19 A3020 RMK AO2 SLP238 T11111194 58003 $

10-Day Weather Forecast

Almanac

Astronomy

Dec. 06, 2016 Rise Set
Actual Time
Civil Twilight
Nautical Twilight
Astronomical Twilight
Moon
Length of Visible Light
Length of Day
Tomorrow will be .
, % of the Moon is Illuminated

Today's Extremes

State Highs State Lows

Community

WunderPhotos

Upload Photos

1,956,033 photos uploaded!

WunderBlog® & News

Nearby

Air Quality

  Air Quality AQ Index Pollutant
Not available.

Snow Depth

Station Depth Elevation

Earthquake Activity

City Distance Mag. Time & Date
Minimum magnitude displayed is 2.5.

Coastal Water Temperatures

Place Temperature

Stations

Nearby Weather Stations

Station Location Temp. Windchill Dew Point Humidity Wind Precip. Elev Updated Type
                   

Watches & Warnings

There are currently no watches in effect.